Nellis Air Force Base, NV

5:02 PM PDT on July 03, 2015 (GMT -0700)
Nellis AFB | | Change Station
CLOSE
Current Station
Airport
Location: Nellis AFB,
Elevation: 1870 ft
Nearby Weather Stations

Elev 1870 ft 36.24 °N, 115.03 °W | Updated 4 minutes ago

Clear
Clear
108 °F
Feels Like 108 °F
N
8
Wind Variable Wind from SE

Today
High -- | Low -- °F
--% Chance of Precip.
Yesterday
High -- | Low -- °F
Precip. -- in
5:27 AM 8:01 PM
Waning Gibbous, 95% visible
Pressure 29.62 in
Visibility 10.0 miles
Clouds Clear
Dew Point 35 °F
Humidity 8%
Rainfall 0.00 in
Snow Depth Not available.
UV 4 out of 12
Pollen 4.40 out of 12
Air Quality Not available.
Flu Activity Not available.
METAR KLSV 032358Z AUTO 14007KT 090V190 10SM CLR 42/02 A2971 RMK AO2 SLP029 T04210019 10426 20381 57025 $

More Conditions Fewer Conditions

Pressure 29.62 in
Visibility 10.0 miles
Clouds Clear
Dew Point 35 °F
Humidity 8%
Rainfall 0.00 in
Snow Depth Not available.
UV 4 out of 12
Pollen 4.40 out of 12
Air Quality Not available.
Flu Activity Not available.
METAR KLSV 032358Z AUTO 14007KT 090V190 10SM CLR 42/02 A2971 RMK AO2 SLP029 T04210019 10426 20381 57025 $

More Conditions Fewer Conditions

10-Day Weather Forecast

×

Almanac

Astronomy

Jul. 03, 2015 Rise Set
Actual Time
Civil Twilight
Nautical Twilight
Astronomical Twilight
Moon
Length of Visible Light
Length of Day
Tomorrow will be .
, % of the Moon is Illuminated

Today's Extremes

State Highs State Lows

Community

WunderPhotos

Upload Photos

1,834,831 photos uploaded!

WunderBlogs® & News

Nearby

Air Quality

  Air Quality AQ Index Pollutant
Not available.

Snow Depth

Station Depth Elevation

Earthquake Activity

City Distance Mag. Time & Date
Minimum magnitude displayed is 2.5.

Coastal Water Temperatures

Place Temperature

Stations

Nearby Weather Stations

Station Location Temp. Windchill Dew Point Humidity Wind Precip. Elev Updated Type